createdAt,value
2019-05-10T00:00:15.260Z,14.70
2019-05-10T00:03:37.272Z,14.60
2019-05-10T00:06:59.303Z,14.80
2019-05-10T00:10:02.606Z,14.20
2019-05-10T00:13:15.429Z,13.37
2019-05-10T00:16:19.720Z,14.20
2019-05-10T00:19:23.993Z,14.77
2019-05-10T00:22:28.280Z,13.60
2019-05-10T00:25:32.559Z,13.30
2019-05-10T00:28:36.864Z,14.47
2019-05-10T00:31:41.126Z,14.10
2019-05-10T00:34:45.402Z,14.57
2019-05-10T00:37:49.698Z,14.27
2019-05-10T00:40:53.956Z,16.20
2019-05-10T00:43:58.271Z,15.13
2019-05-10T00:47:02.640Z,15.43
2019-05-10T00:50:07.045Z,14.90
2019-05-10T00:53:11.316Z,15.03
2019-05-10T00:56:15.612Z,15.33
2019-05-10T00:59:19.881Z,14.60
2019-05-10T01:02:24.280Z,14.57
2019-05-10T01:05:28.546Z,14.97
2019-05-10T01:08:32.865Z,13.87
2019-05-10T01:11:37.161Z,13.70
2019-05-10T01:14:41.524Z,13.73
2019-05-10T01:17:45.800Z,15.50
2019-05-10T01:20:50.088Z,14.37
2019-05-10T01:23:54.432Z,14.50
2019-05-10T01:26:58.694Z,15.47
2019-05-10T01:30:02.986Z,14.77
2019-05-10T01:33:07.272Z,15.87
2019-05-10T01:36:11.567Z,15.40
2019-05-10T01:39:15.841Z,15.67
2019-05-10T01:42:20.130Z,15.63
2019-05-10T01:45:24.404Z,14.67
2019-05-10T01:48:28.715Z,15.27
2019-05-10T01:51:33.018Z,15.40
2019-05-10T01:54:37.293Z,17.00
2019-05-10T01:57:41.589Z,16.37
2019-05-10T02:00:45.980Z,16.20
2019-05-10T02:03:50.235Z,13.97
2019-05-10T02:06:54.523Z,14.03
2019-05-10T02:09:58.819Z,14.30
2019-05-10T02:13:03.091Z,14.70
2019-05-10T02:16:07.403Z,15.90
2019-05-10T02:19:11.683Z,16.10
2019-05-10T02:22:15.979Z,17.90
2019-05-10T02:25:20.268Z,16.20
2019-05-10T02:28:24.545Z,16.43
2019-05-10T02:31:28.848Z,15.77
2019-05-10T02:34:33.137Z,15.43
2019-05-10T02:37:37.425Z,16.37
2019-05-10T02:40:41.700Z,17.43
2019-05-10T02:43:45.973Z,16.17
2019-05-10T02:46:50.239Z,16.40
2019-05-10T02:49:54.506Z,16.13
2019-05-10T02:52:58.774Z,16.37
2019-05-10T02:56:03.862Z,17.30
2019-05-10T02:59:09.748Z,17.57
2019-05-10T03:02:14.555Z,17.40
2019-05-10T03:05:18.830Z,18.37
2019-05-10T03:08:24.613Z,17.47
2019-05-10T03:11:32.218Z,17.07
2019-05-10T03:14:42.121Z,17.43
2019-05-10T03:17:47.715Z,18.23
2019-05-10T03:20:54.527Z,18.17
2019-05-10T03:23:58.860Z,17.03
2019-05-10T03:27:03.157Z,18.47
2019-05-10T03:30:07.688Z,16.60
2019-05-10T03:33:11.992Z,17.40
2019-05-10T03:36:16.263Z,17.27
2019-05-10T03:39:20.754Z,17.47
2019-05-10T03:42:25.031Z,16.43
2019-05-10T03:45:29.313Z,16.67
2019-05-10T03:48:33.601Z,16.87
2019-05-10T03:51:37.911Z,18.30
2019-05-10T03:54:42.320Z,16.27
2019-05-10T03:57:46.594Z,15.57
2019-05-10T04:00:50.893Z,16.50
2019-05-10T04:03:55.168Z,17.63
2019-05-10T04:06:59.460Z,16.90
2019-05-10T04:10:04.104Z,15.87
2019-05-10T04:13:08.422Z,16.87
2019-05-10T04:16:12.855Z,16.23
2019-05-10T04:19:17.258Z,15.43
2019-05-10T04:22:21.708Z,15.70
2019-05-10T04:25:26.142Z,15.27
2019-05-10T04:28:30.730Z,15.37
2019-05-10T04:31:35.422Z,14.67
2019-05-10T04:34:39.714Z,15.57
2019-05-10T04:37:44.014Z,15.43
2019-05-10T04:40:48.344Z,15.10
2019-05-10T04:43:52.653Z,13.70
2019-05-10T04:46:56.958Z,12.53
2019-05-10T04:50:01.255Z,13.00
2019-05-10T04:53:05.663Z,13.13
2019-05-10T04:56:09.993Z,11.90
2019-05-10T04:59:14.659Z,12.73
2019-05-10T05:02:22.080Z,12.27
2019-05-10T05:05:25.004Z,12.87
2019-05-10T05:08:29.291Z,13.90
2019-05-10T05:11:33.610Z,13.83
2019-05-10T05:14:37.894Z,13.60
2019-05-10T05:17:42.182Z,13.13
2019-05-10T05:20:46.488Z,14.23
2019-05-10T05:23:50.811Z,13.17
2019-05-10T05:26:55.127Z,13.50
2019-05-10T05:29:59.428Z,13.33
2019-05-10T05:33:03.737Z,13.17
2019-05-10T05:36:08.048Z,11.67
2019-05-10T05:39:12.374Z,11.83
2019-05-10T05:42:16.664Z,10.47
2019-05-10T05:45:21.001Z,9.10
2019-05-10T05:48:39.507Z,8.80
2019-05-10T05:51:31.533Z,9.30
2019-05-10T05:54:35.861Z,7.47
2019-05-10T05:57:40.234Z,6.83
2019-05-10T06:00:46.623Z,6.10
2019-05-10T06:03:50.724Z,5.17
2019-05-10T06:06:59.026Z,5.50
2019-05-10T06:10:02.026Z,6.13
2019-05-10T06:13:06.340Z,6.23
2019-05-10T06:16:12.853Z,6.87
2019-05-10T06:19:20.553Z,5.13
2019-05-10T06:22:22.688Z,5.47
2019-05-10T06:25:39.693Z,3.50
2019-05-10T06:28:57.352Z,3.27
2019-05-10T06:31:39.063Z,3.37
2019-05-10T06:34:43.388Z,3.47
2019-05-10T06:37:47.657Z,2.60
2019-05-10T06:40:51.936Z,2.17
2019-05-10T06:43:56.213Z,2.10
2019-05-10T06:47:02.205Z,1.70
2019-05-10T06:50:08.541Z,1.93
2019-05-10T06:53:12.851Z,1.70
2019-05-10T06:56:17.203Z,1.73
2019-05-10T06:59:25.057Z,1.60
2019-05-10T07:02:31.840Z,1.40
2019-05-10T07:05:33.623Z,2.03
2019-05-10T07:08:44.415Z,2.10
2019-05-10T07:11:43.984Z,1.83
2019-05-10T07:14:48.371Z,1.73
2019-05-10T07:17:52.725Z,1.90
2019-05-10T07:21:00.753Z,1.90
2019-05-10T07:24:03.186Z,2.00
2019-05-10T07:27:07.506Z,2.70
2019-05-10T07:30:12.004Z,2.93
2019-05-10T07:33:16.290Z,3.20
2019-05-10T07:36:26.997Z,3.00
2019-05-10T07:39:26.622Z,2.93
2019-05-10T07:42:30.893Z,3.43
2019-05-10T07:45:35.492Z,3.50
2019-05-10T07:48:41.093Z,3.00
2019-05-10T07:51:45.770Z,3.10
2019-05-10T07:54:50.088Z,3.30
2019-05-10T07:57:58.990Z,2.93
2019-05-10T08:01:00.381Z,3.13
2019-05-10T08:04:04.672Z,2.40
2019-05-10T08:07:10.473Z,2.43
2019-05-10T08:10:15.131Z,2.23
2019-05-10T08:13:23.320Z,2.50
2019-05-10T08:16:25.406Z,2.40
2019-05-10T08:19:32.779Z,2.17
2019-05-10T08:22:41.442Z,2.20
2019-05-10T08:25:46.759Z,2.03
2019-05-10T08:28:47.761Z,2.23
2019-05-10T08:31:55.691Z,2.10
2019-05-10T08:34:58.075Z,2.37
2019-05-10T08:38:04.535Z,2.10
2019-05-10T08:41:14.677Z,2.23
2019-05-10T08:44:19.276Z,2.00
2019-05-10T08:47:27.210Z,2.87
2019-05-10T08:50:44.046Z,2.10
2019-05-10T08:53:32.994Z,2.30
2019-05-10T08:56:37.256Z,1.97
2019-05-10T08:59:42.685Z,2.13
2019-05-10T09:02:47.104Z,1.60
2019-05-10T09:05:52.505Z,1.40
2019-05-10T09:09:01.517Z,1.13
2019-05-10T09:12:07.366Z,1.20
2019-05-10T09:15:10.187Z,1.40
2019-05-10T09:18:15.057Z,1.20
2019-05-10T09:21:19.376Z,1.27
2019-05-10T09:24:23.697Z,1.20
2019-05-10T09:27:29.072Z,1.47
2019-05-10T09:30:35.772Z,1.33
2019-05-10T09:33:42.951Z,2.17
2019-05-10T09:36:47.165Z,1.50
2019-05-10T09:39:54.929Z,1.00
2019-05-10T09:42:59.474Z,1.10
2019-05-10T09:46:03.669Z,1.00
2019-05-10T09:49:15.794Z,1.17
2019-05-10T09:52:18.302Z,1.20
2019-05-10T09:55:20.105Z,1.40
2019-05-10T09:58:24.421Z,1.27
2019-05-10T10:01:28.887Z,1.00
2019-05-10T10:04:33.256Z,1.20
2019-05-10T10:07:37.565Z,1.20
2019-05-10T10:10:42.062Z,1.30
2019-05-10T10:13:51.997Z,1.33
2019-05-10T10:16:58.251Z,1.10
2019-05-10T10:19:58.430Z,1.33
2019-05-10T10:23:02.777Z,1.10
2019-05-10T10:26:07.312Z,1.10
2019-05-10T10:29:11.625Z,1.27
2019-05-10T10:32:15.908Z,1.40
2019-05-10T10:35:26.517Z,1.37
2019-05-10T10:38:30.657Z,1.30
2019-05-10T10:41:32.221Z,1.50
2019-05-10T10:44:37.134Z,1.00
2019-05-10T10:47:41.501Z,1.40
2019-05-10T10:50:52.693Z,1.47
2019-05-10T10:53:54.583Z,1.10
2019-05-10T10:56:59.671Z,1.33
2019-05-10T11:00:03.878Z,1.40
2019-05-10T11:03:08.197Z,1.30
2019-05-10T11:06:15.362Z,1.40
2019-05-10T11:09:20.592Z,1.43
2019-05-10T11:12:24.542Z,1.80
2019-05-10T11:15:35.579Z,1.23
2019-05-10T11:18:35.046Z,1.17
2019-05-10T11:21:41.523Z,1.20
2019-05-10T11:24:45.323Z,1.37
2019-05-10T11:27:53.913Z,1.50
2019-05-10T11:30:55.620Z,1.20
2019-05-10T11:34:01.567Z,1.40
2019-05-10T11:37:05.957Z,1.50
2019-05-10T11:40:11.369Z,1.20
2019-05-10T11:43:17.278Z,1.50
2019-05-10T11:46:23.799Z,0.97
2019-05-10T11:49:30.615Z,1.30
2019-05-10T11:52:34.725Z,1.10
2019-05-10T11:55:43.030Z,1.33
2019-05-10T11:58:53.154Z,1.50
2019-05-10T12:01:57.930Z,1.10
2019-05-10T12:05:01.221Z,1.53
2019-05-10T12:08:04.220Z,1.20
2019-05-10T12:14:14.503Z,1.10
2019-05-10T12:17:18.814Z,1.57
2019-05-10T12:20:39.543Z,1.23
2019-05-10T12:23:31.471Z,1.60
2019-05-10T12:26:50.632Z,1.00
2019-05-10T12:29:41.085Z,1.70
2019-05-10T12:32:55.706Z,1.50
2019-05-10T12:35:51.443Z,1.50
2019-05-10T12:38:56.719Z,1.60
2019-05-10T12:42:01.720Z,1.50
2019-05-10T12:45:06.540Z,1.80
2019-05-10T12:48:10.809Z,1.90
2019-05-10T12:51:16.335Z,1.60
2019-05-10T12:54:23.967Z,1.50
2019-05-10T12:57:26.988Z,1.67
2019-05-10T13:00:31.264Z,2.10
2019-05-10T13:03:35.551Z,2.00
2019-05-10T13:06:39.926Z,1.60
2019-05-10T13:09:44.244Z,2.20
2019-05-10T13:12:48.567Z,1.70
2019-05-10T13:15:52.865Z,2.00
2019-05-10T13:18:57.151Z,1.70
2019-05-10T13:22:01.441Z,2.33
2019-05-10T13:25:06.032Z,1.60
2019-05-10T13:28:11.427Z,2.27
2019-05-10T13:31:16.120Z,2.30
2019-05-10T13:34:24.280Z,2.63
2019-05-10T13:37:27.808Z,1.93
2019-05-10T13:40:32.094Z,2.13
2019-05-10T13:43:36.393Z,2.40
2019-05-10T13:46:40.696Z,2.60
2019-05-10T13:49:48.503Z,2.23
2019-05-10T13:52:50.994Z,2.30
2019-05-10T13:55:55.295Z,2.07
2019-05-10T13:59:13.957Z,1.90
2019-05-10T14:02:05.623Z,1.80
2019-05-10T14:05:17.549Z,2.07
2019-05-10T14:08:19.402Z,2.10
2019-05-10T14:11:23.720Z,2.37
2019-05-10T14:14:28.009Z,2.40
2019-05-10T14:17:32.298Z,1.93
2019-05-10T14:20:36.575Z,2.50
2019-05-10T14:23:40.859Z,2.60
2019-05-10T14:26:45.156Z,2.27
2019-05-10T14:29:49.462Z,2.70
2019-05-10T14:32:53.764Z,2.80
2019-05-10T14:36:01.074Z,2.40
2019-05-10T14:39:06.341Z,2.83
2019-05-10T14:42:10.629Z,2.50
2019-05-10T14:45:15.032Z,2.83
2019-05-10T14:48:28.002Z,3.30
2019-05-10T14:51:40.410Z,2.40
2019-05-10T14:54:43.253Z,2.33
2019-05-10T14:57:37.405Z,2.67
2019-05-10T15:00:41.667Z,2.20
2019-05-10T15:03:47.471Z,2.40
2019-05-10T15:06:51.858Z,2.30
2019-05-10T15:10:00.172Z,2.07
2019-05-10T15:13:02.188Z,2.13
2019-05-10T15:16:09.656Z,2.00
2019-05-10T15:19:12.511Z,2.37
2019-05-10T15:22:18.482Z,2.23
2019-05-10T15:25:22.783Z,2.40
2019-05-10T15:28:27.054Z,2.50
2019-05-10T15:31:31.355Z,2.40
2019-05-10T15:34:35.628Z,1.90
2019-05-10T15:37:46.000Z,2.20
2019-05-10T15:40:46.136Z,2.20
2019-05-10T15:43:53.554Z,2.53
2019-05-10T15:46:56.349Z,2.23
2019-05-10T15:50:01.658Z,2.57
2019-05-10T15:53:06.088Z,2.50
2019-05-10T15:56:10.379Z,2.13
2019-05-10T15:59:19.218Z,2.67
2019-05-10T16:02:20.619Z,2.20
2019-05-10T16:05:42.095Z,2.87
2019-05-10T16:08:32.049Z,2.53
2019-05-10T16:11:36.415Z,2.60
2019-05-10T16:14:41.189Z,2.07
2019-05-10T16:17:46.699Z,2.37
2019-05-10T16:20:50.989Z,2.57
2019-05-10T16:23:55.276Z,2.60
2019-05-10T16:27:01.562Z,2.33
2019-05-10T16:30:06.189Z,2.37
2019-05-10T16:33:15.605Z,1.73
2019-05-10T16:36:16.508Z,2.40
2019-05-10T16:39:20.808Z,1.50
2019-05-10T16:42:27.990Z,2.17
2019-05-10T16:45:31.197Z,2.00
2019-05-10T16:48:35.475Z,1.77
2019-05-10T16:51:42.461Z,1.60
2019-05-10T16:54:45.764Z,2.10
2019-05-10T16:57:50.048Z,2.37
2019-05-10T17:00:54.320Z,1.70
2019-05-10T17:04:00.339Z,1.63
2019-05-10T17:07:04.617Z,2.20
2019-05-10T17:10:08.906Z,1.83
2019-05-10T17:13:13.182Z,2.13
2019-05-10T17:16:19.284Z,2.10
2019-05-10T17:19:27.979Z,1.80
2019-05-10T17:22:29.581Z,2.17
2019-05-10T17:25:35.477Z,1.97
2019-05-10T17:28:39.933Z,1.73
2019-05-10T17:31:45.681Z,1.90
2019-05-10T17:34:50.233Z,2.07
2019-05-10T17:37:54.582Z,2.10
2019-05-10T17:40:58.865Z,2.33
2019-05-10T17:44:03.206Z,2.27
2019-05-10T17:47:07.516Z,2.00
2019-05-10T17:50:11.992Z,2.00
2019-05-10T17:53:16.297Z,1.80
2019-05-10T17:56:20.632Z,2.20
2019-05-10T17:59:24.935Z,2.40
2019-05-10T18:02:29.218Z,2.00
2019-05-10T18:05:33.521Z,1.70
2019-05-10T18:08:37.830Z,2.07
2019-05-10T18:11:42.873Z,2.47
2019-05-10T18:14:50.166Z,1.60
2019-05-10T18:17:57.522Z,1.67
2019-05-10T18:21:00.185Z,2.43
2019-05-10T18:24:04.479Z,1.77
2019-05-10T18:27:08.804Z,2.23
2019-05-10T18:30:13.409Z,2.03
2019-05-10T18:33:17.775Z,2.17
2019-05-10T18:36:24.799Z,2.40
2019-05-10T18:39:28.080Z,2.90
2019-05-10T18:42:32.395Z,2.20
2019-05-10T18:45:36.693Z,2.20
2019-05-10T18:48:40.988Z,2.20
2019-05-10T18:51:45.336Z,2.13
2019-05-10T18:54:49.649Z,2.07
2019-05-10T18:57:53.977Z,2.20
2019-05-10T19:01:00.550Z,2.43
2019-05-10T19:04:07.274Z,2.20
2019-05-10T19:07:10.585Z,2.60
2019-05-10T19:10:14.917Z,2.20
2019-05-10T19:13:19.642Z,2.50
2019-05-10T19:16:25.965Z,1.83
2019-05-10T19:19:35.223Z,2.07
2019-05-10T19:22:41.267Z,2.20
2019-05-10T19:25:45.664Z,2.17
2019-05-10T19:28:48.663Z,2.50
2019-05-10T19:31:53.242Z,2.13
2019-05-10T19:34:59.000Z,2.30
2019-05-10T19:38:03.528Z,2.00
2019-05-10T19:41:08.055Z,2.47
2019-05-10T19:44:12.417Z,2.03
2019-05-10T19:47:18.173Z,2.27
2019-05-10T19:50:30.323Z,2.43
2019-05-10T19:53:29.015Z,2.40
2019-05-10T19:56:36.591Z,2.70
2019-05-10T19:59:43.919Z,2.43
2019-05-10T20:02:47.167Z,2.80
2019-05-10T20:05:51.551Z,2.53
2019-05-10T20:08:55.907Z,3.03
2019-05-10T20:12:00.305Z,3.03
2019-05-10T20:15:04.831Z,2.53
2019-05-10T20:18:09.233Z,2.10
2019-05-10T20:21:13.555Z,2.47
2019-05-10T20:24:17.852Z,2.60
2019-05-10T20:27:22.656Z,2.77
2019-05-10T20:30:26.937Z,2.80
2019-05-10T20:33:31.241Z,2.10
2019-05-10T20:36:35.551Z,2.97
2019-05-10T20:39:39.838Z,2.50
2019-05-10T20:42:47.155Z,2.50
2019-05-10T20:45:51.467Z,2.50
2019-05-10T20:48:55.783Z,2.60
2019-05-10T20:52:00.126Z,2.67
2019-05-10T20:55:04.552Z,2.43
2019-05-10T20:58:08.907Z,2.37
2019-05-10T21:01:13.167Z,3.17
2019-05-10T21:04:17.457Z,2.37
2019-05-10T21:07:21.746Z,2.80
2019-05-10T21:10:26.017Z,2.83
2019-05-10T21:13:30.305Z,2.93
2019-05-10T21:16:34.584Z,3.10
2019-05-10T21:19:38.863Z,2.90
2019-05-10T21:22:43.139Z,2.67
2019-05-10T21:25:47.432Z,2.77
2019-05-10T21:28:51.710Z,3.03
2019-05-10T21:31:55.983Z,3.43
2019-05-10T21:35:00.264Z,3.20
2019-05-10T21:38:04.548Z,3.70
2019-05-10T21:41:08.828Z,3.20
2019-05-10T21:44:13.116Z,3.10
2019-05-10T21:47:17.400Z,3.03
2019-05-10T21:50:21.683Z,3.13
2019-05-10T21:53:25.956Z,3.07
2019-05-10T21:56:30.235Z,3.60
2019-05-10T21:59:34.496Z,3.33
2019-05-10T22:02:38.767Z,3.60
2019-05-10T22:05:43.146Z,3.33
2019-05-10T22:08:49.759Z,3.50
2019-05-10T22:11:53.418Z,3.30
2019-05-10T22:14:57.689Z,3.40
2019-05-10T22:18:21.046Z,3.67
2019-05-10T22:21:26.105Z,3.90
2019-05-10T22:24:30.377Z,3.50
2019-05-10T22:27:34.683Z,4.13
2019-05-10T22:30:39.062Z,3.53
2019-05-10T22:33:43.340Z,3.07
2019-05-10T22:36:47.644Z,3.57
2019-05-10T22:39:51.918Z,3.60
2019-05-10T22:42:56.208Z,3.87
2019-05-10T22:46:00.501Z,4.10
2019-05-10T22:49:04.786Z,3.80
2019-05-10T22:52:09.073Z,3.63
2019-05-10T22:55:13.457Z,4.00
2019-05-10T22:58:17.797Z,3.47
2019-05-10T23:01:22.084Z,3.73
2019-05-10T23:04:26.355Z,3.27
2019-05-10T23:07:30.694Z,3.50
2019-05-10T23:10:35.003Z,3.27
2019-05-10T23:13:39.293Z,3.93
2019-05-10T23:16:43.585Z,3.33
2019-05-10T23:19:47.876Z,3.47
2019-05-10T23:22:52.170Z,3.63
2019-05-10T23:25:56.481Z,3.70
2019-05-10T23:29:00.766Z,3.80
2019-05-10T23:32:05.060Z,4.10
2019-05-10T23:35:09.458Z,3.83
2019-05-10T23:38:13.732Z,3.83
2019-05-10T23:41:18.016Z,4.00
2019-05-10T23:44:22.297Z,4.07
2019-05-10T23:47:26.632Z,4.03
2019-05-10T23:50:30.914Z,4.00
2019-05-10T23:53:35.194Z,5.43
2019-05-10T23:56:39.477Z,4.03
2019-05-10T23:59:44.046Z,4.43
